createdAt,value
2023-01-20T00:03:48.230Z,57.67
2023-01-20T00:13:55.175Z,57.30
2023-01-20T00:24:03.244Z,50.83
2023-01-20T00:34:05.649Z,52.23
2023-01-20T00:44:10.418Z,48.70
2023-01-20T00:54:13.513Z,46.83
2023-01-20T01:04:16.199Z,51.00
2023-01-20T01:14:18.471Z,53.47
2023-01-20T01:24:21.054Z,49.07
2023-01-20T01:34:23.167Z,45.43
2023-01-20T01:44:27.351Z,42.43
2023-01-20T01:54:36.114Z,42.73
2023-01-20T02:04:41.510Z,48.77
2023-01-20T02:14:54.207Z,54.67
2023-01-20T02:25:17.563Z,54.40
2023-01-20T02:35:24.814Z,48.23
2023-01-20T02:45:37.070Z,59.67
2023-01-20T02:55:46.593Z,51.97
2023-01-20T03:05:55.089Z,52.03
2023-01-20T03:16:18.712Z,64.13
2023-01-20T03:26:22.875Z,56.00
2023-01-20T03:36:29.145Z,63.10
2023-01-20T03:46:43.053Z,56.13
2023-01-20T03:57:09.625Z,62.60
2023-01-20T04:07:18.943Z,65.27
2023-01-20T04:17:21.213Z,79.70
2023-01-20T04:27:27.042Z,72.40
2023-01-20T04:37:29.307Z,78.03
2023-01-20T04:47:35.075Z,75.50
2023-01-20T04:57:37.286Z,70.83
2023-01-20T05:07:39.529Z,62.13
2023-01-20T05:17:41.601Z,62.90
2023-01-20T05:27:46.305Z,65.40
2023-01-20T05:37:48.463Z,64.63
2023-01-20T05:47:59.410Z,54.90
2023-01-20T05:58:04.538Z,65.43
2023-01-20T06:08:06.851Z,61.13
2023-01-20T06:18:12.963Z,58.47
2023-01-20T06:28:15.141Z,66.00
2023-01-20T06:38:17.536Z,53.63
2023-01-20T06:48:19.733Z,47.10
2023-01-20T06:58:26.974Z,49.30
2023-01-20T07:08:29.856Z,49.53
2023-01-20T07:18:34.272Z,48.43
2023-01-20T07:28:37.657Z,51.30
2023-01-20T07:38:44.882Z,49.27
2023-01-20T07:48:47.197Z,47.40
2023-01-20T07:58:56.354Z,51.33
2023-01-20T08:09:02.632Z,53.47
2023-01-20T08:19:04.908Z,49.87
2023-01-20T08:29:17.517Z,46.07
2023-01-20T08:39:33.899Z,44.33
2023-01-20T08:49:36.053Z,37.33
2023-01-20T08:59:42.806Z,45.27
2023-01-20T09:09:45.168Z,43.03
2023-01-20T09:19:49.378Z,41.83
2023-01-20T09:29:51.493Z,37.27
2023-01-20T09:40:15.591Z,41.67
2023-01-20T09:50:38.965Z,34.43
2023-01-20T10:00:44.238Z,31.80
2023-01-20T10:10:54.737Z,33.77
2023-01-20T10:21:03.437Z,34.00
2023-01-20T10:31:06.084Z,42.63
2023-01-20T10:41:19.818Z,34.70
2023-01-20T10:51:28.548Z,28.90
2023-01-20T11:01:35.455Z,30.70
2023-01-20T11:11:41.417Z,30.67
2023-01-20T11:21:48.609Z,36.83
2023-01-20T11:31:58.618Z,30.33
2023-01-20T11:42:32.541Z,26.93
2023-01-20T11:52:41.824Z,31.33
2023-01-20T12:02:48.972Z,24.50
2023-01-20T12:12:57.897Z,30.37
2023-01-20T12:23:52.350Z,29.53
2023-01-20T12:34:01.640Z,27.63
2023-01-20T12:44:23.448Z,31.47
2023-01-20T12:54:52.060Z,17.17
2023-01-20T13:05:21.036Z,21.20
2023-01-20T13:15:43.761Z,20.60
2023-01-20T13:25:48.559Z,18.30
2023-01-20T13:35:51.065Z,18.00
2023-01-20T13:46:05.937Z,17.40
2023-01-20T13:56:39.194Z,20.13
2023-01-20T14:06:51.619Z,16.93
2023-01-20T14:16:57.582Z,9.23
2023-01-20T14:27:18.748Z,15.97
2023-01-20T14:37:31.795Z,17.03
2023-01-20T14:47:39.506Z,16.73
2023-01-20T14:57:44.769Z,14.27
2023-01-20T15:08:26.794Z,19.13
2023-01-20T15:18:34.491Z,19.87
2023-01-20T15:28:46.135Z,19.47
2023-01-20T15:38:51.385Z,20.90
2023-01-20T15:48:55.906Z,18.93
2023-01-20T15:58:58.252Z,20.80
2023-01-20T16:09:16.438Z,20.27
2023-01-20T16:19:20.299Z,15.97
2023-01-20T16:29:27.797Z,13.57
2023-01-20T16:39:29.917Z,13.47
2023-01-20T16:49:32.103Z,19.60
2023-01-20T16:59:36.655Z,16.03
2023-01-20T17:09:44.514Z,15.03
2023-01-20T17:19:47.436Z,16.87
2023-01-20T17:29:54.468Z,21.50
2023-01-20T17:39:56.625Z,14.63
2023-01-20T17:49:58.825Z,11.33
2023-01-20T18:00:05.601Z,19.83
2023-01-20T18:10:10.142Z,15.43
2023-01-20T18:20:12.868Z,16.70
2023-01-20T18:30:15.693Z,15.37
2023-01-20T18:40:20.539Z,15.53
2023-01-20T18:50:24.959Z,10.50
2023-01-20T19:00:30.535Z,12.83
2023-01-20T19:10:39.083Z,13.00
2023-01-20T19:20:41.201Z,12.13
2023-01-20T19:30:43.749Z,7.67
2023-01-20T19:40:46.021Z,11.87
2023-01-20T19:50:52.920Z,8.53
2023-01-20T20:01:20.189Z,9.77
2023-01-20T20:11:23.869Z,12.00
2023-01-20T20:21:26.574Z,6.50
2023-01-20T20:31:30.056Z,7.90
2023-01-20T20:41:45.643Z,12.30
2023-01-20T20:51:50.606Z,9.87
2023-01-20T21:01:55.343Z,10.30
2023-01-20T21:12:00.535Z,11.23
2023-01-20T21:22:09.998Z,12.83
2023-01-20T21:32:14.117Z,6.80
2023-01-20T21:42:19.051Z,12.00
2023-01-20T21:52:44.118Z,11.03
2023-01-20T22:02:46.282Z,7.77
2023-01-20T22:12:50.756Z,13.33
2023-01-20T22:22:57.758Z,8.30
2023-01-20T22:33:02.363Z,8.27
2023-01-20T22:43:04.508Z,7.43
2023-01-20T22:53:06.653Z,6.73
2023-01-20T23:03:10.184Z,11.67
2023-01-20T23:13:12.714Z,11.53
2023-01-20T23:23:17.027Z,9.70
2023-01-20T23:33:24.196Z,14.13
2023-01-20T23:43:31.638Z,13.03
2023-01-20T23:53:38.835Z,16.00
